Time;durP1;ratioP1;P1;durP2;ratioP2;P2;SDS_P1;SDS_P2;PMS_P1;PMS_P2;Temp;Humidity;BMP_temperature;BMP_pressure;BME280_temperature;BME280_humidity;BME280_pressure;Samples;Min_cycle;Max_cycle;Signal;HPM_P1;HPM_P2
2023/10/15 00:00:16;;;;;;;8.60;1.15;;;6.10;99.90;;;;;;5021055;28;20106;-75
2023/10/15 00:02:43;;;;;;;4.18;1.13;;;6.20;99.90;;;;;;5030653;28;20143;-75
2023/10/15 00:05:19;;;;;;;4.38;1.05;;;6.20;99.90;;;;;;5031084;28;20044;-75
2023/10/15 00:07:49;;;;;;;4.00;0.60;;;6.20;99.90;;;;;;5042456;28;20072;-75
2023/10/15 00:10:17;;;;;;;6.78;0.70;;;6.30;99.90;;;;;;5046967;28;20414;-75
2023/10/15 00:12:45;;;;;;;2.95;0.60;;;6.40;99.90;;;;;;5031266;28;20098;-76
2023/10/15 00:15:16;;;;;;;2.75;0.80;;;6.40;99.90;;;;;;5042299;28;20033;-77
2023/10/15 00:17:42;;;;;;;3.30;0.50;;;6.40;99.90;;;;;;5024201;28;20088;-77
2023/10/15 00:20:16;;;;;;;1.30;0.47;;;6.50;99.90;;;;;;5041492;28;20069;-76
2023/10/15 00:22:42;;;;;;;5.45;0.75;;;6.60;99.90;;;;;;5034343;28;20116;-76
2023/10/15 00:25:12;;;;;;;6.45;0.77;;;6.50;99.90;;;;;;5030929;28;20559;-76
2023/10/15 00:27:38;;;;;;;4.97;0.60;;;6.50;99.90;;;;;;5022755;28;20511;-75
2023/10/15 00:30:06;;;;;;;4.05;0.85;;;6.40;99.90;;;;;;5040993;28;20041;-75
2023/10/15 00:32:32;;;;;;;4.28;0.52;;;6.40;99.90;;;;;;5042487;28;20033;-76
2023/10/15 00:34:58;;;;;;;6.43;0.80;;;6.30;99.90;;;;;;5035704;28;20056;-75
2023/10/15 00:37:24;;;;;;;3.92;0.55;;;6.30;99.90;;;;;;5040873;28;20037;-75
2023/10/15 00:39:50;;;;;;;5.30;0.82;;;6.30;99.90;;;;;;5039829;28;20045;-76
2023/10/15 00:42:16;;;;;;;3.10;0.70;;;6.30;99.90;;;;;;5026536;28;20548;-75
2023/10/15 00:44:42;;;;;;;2.20;0.68;;;6.20;99.90;;;;;;5030431;28;20041;-75
2023/10/15 00:47:15;;;;;;;3.13;0.65;;;6.20;99.90;;;;;;5038795;28;20083;-75
2023/10/15 00:49:43;;;;;;;5.75;1.13;;;6.30;99.90;;;;;;5023227;28;20083;-75
2023/10/15 00:52:09;;;;;;;4.65;0.50;;;6.20;99.90;;;;;;5032166;28;20057;-75
2023/10/15 00:54:38;;;;;;;3.25;0.50;;;6.30;99.90;;;;;;5025330;28;20112;-75
2023/10/15 00:57:26;;;;;;;7.32;0.85;;;6.40;99.90;;;;;;5045038;28;20036;-75
2023/10/15 00:59:54;;;;;;;2.58;0.52;;;6.30;99.90;;;;;;5042933;28;20060;-75
2023/10/15 01:02:28;;;;;;;1.83;0.57;;;6.30;99.90;;;;;;5025136;28;20041;-75
2023/10/15 01:04:58;;;;;;;2.83;0.50;;;6.40;99.90;;;;;;5044560;28;20051;-75
2023/10/15 01:07:41;;;;;;;3.75;0.93;;;6.40;99.90;;;;;;5035536;28;20044;-75
2023/10/15 01:10:08;;;;;;;4.50;0.70;;;6.30;99.90;;;;;;5041863;28;20033;-75
2023/10/15 01:12:34;;;;;;;3.85;0.70;;;6.30;99.90;;;;;;5029161;28;20484;-75
2023/10/15 01:15:00;;;;;;;2.28;0.80;;;6.30;99.90;;;;;;5038222;28;20030;-75
2023/10/15 01:17:26;;;;;;;1.45;0.40;;;6.40;99.90;;;;;;5045051;28;20044;-75
2023/10/15 01:19:52;;;;;;;4.00;0.70;;;6.40;99.90;;;;;;5041330;28;20051;-75
2023/10/15 01:22:20;;;;;;;6.43;0.70;;;6.30;99.90;;;;;;5036970;28;20760;-75
2023/10/15 01:24:53;;;;;;;6.55;0.60;;;6.40;99.90;;;;;;5036011;28;20056;-75
2023/10/15 01:27:29;;;;;;;2.67;0.70;;;6.40;99.90;;;;;;5039566;28;20392;-75
2023/10/15 01:29:55;;;;;;;3.13;0.70;;;6.30;99.90;;;;;;5037117;28;20065;-75
2023/10/15 01:32:22;;;;;;;3.70;0.65;;;6.30;99.90;;;;;;5045804;28;20084;-75
2023/10/15 01:34:52;;;;;;;3.85;0.63;;;6.20;99.90;;;;;;5033186;28;20039;-75
2023/10/15 01:39:52;;;;;;;3.63;0.50;;;6.20;99.90;;;;;;5033421;28;20128;-75
2023/10/15 01:45:09;;;;;;;5.20;0.55;;;6.10;99.90;;;;;;5039649;28;20439;-75
2023/10/15 01:47:36;;;;;;;1.42;0.50;;;6.00;99.90;;;;;;5039154;28;20059;-75
2023/10/15 01:50:08;;;;;;;2.13;0.32;;;5.90;99.90;;;;;;5028307;28;20033;-75
2023/10/15 01:52:42;;;;;;;2.15;0.70;;;5.90;99.90;;;;;;5015747;28;20536;-75
2023/10/15 01:55:08;;;;;;;3.38;0.50;;;5.90;99.90;;;;;;5041540;28;20111;-75
2023/10/15 01:57:36;;;;;;;4.20;0.40;;;5.90;99.90;;;;;;5043930;28;20111;-75
2023/10/15 02:00:12;;;;;;;3.47;0.50;;;5.90;99.90;;;;;;5044229;28;20471;-75
2023/10/15 02:02:38;;;;;;;3.47;0.63;;;5.90;99.90;;;;;;5025808;28;20045;-75
2023/10/15 02:05:05;;;;;;;2.97;0.40;;;6.00;99.90;;;;;;5044607;28;20052;-75
2023/10/15 02:07:31;;;;;;;5.85;0.50;;;6.00;99.90;;;;;;5026544;28;20033;-75
2023/10/15 02:09:57;;;;;;;4.32;0.57;;;6.00;99.90;;;;;;5040010;28;20033;-75
2023/10/15 02:12:22;;;;;;;4.53;0.80;;;5.90;99.90;;;;;;5038449;28;20052;-75
2023/10/15 02:14:48;;;;;;;4.47;0.60;;;5.90;99.90;;;;;;5042221;28;20036;-75
2023/10/15 02:17:18;;;;;;;1.63;0.70;;;5.80;99.90;;;;;;5044045;28;20557;-75
2023/10/15 02:19:44;;;;;;;2.72;0.45;;;5.80;99.90;;;;;;5023521;28;20129;-75
2023/10/15 02:22:14;;;;;;;3.67;0.40;;;5.70;99.90;;;;;;5049434;28;20029;-74
2023/10/15 02:24:46;;;;;;;4.00;0.68;;;5.70;99.90;;;;;;5045708;28;20045;-73
2023/10/15 02:27:27;;;;;;;10.93;1.00;;;5.70;99.90;;;;;;5035248;28;20099;-74
2023/10/15 02:29:53;;;;;;;4.35;0.50;;;5.70;99.90;;;;;;5048899;28;20052;-74
2023/10/15 02:32:21;;;;;;;6.45;0.80;;;5.70;99.90;;;;;;5047031;28;20032;-73
2023/10/15 02:34:50;;;;;;;7.18;0.80;;;5.80;99.90;;;;;;5036133;28;20127;-74
2023/10/15 02:37:18;;;;;;;3.42;0.70;;;5.80;99.90;;;;;;5061598;28;20121;-74
2023/10/15 02:39:49;;;;;;;4.18;0.50;;;5.90;99.90;;;;;;5021602;28;20037;-75
2023/10/15 02:42:18;;;;;;;4.43;0.63;;;5.90;99.90;;;;;;5043571;28;20052;-74
2023/10/15 02:44:50;;;;;;;1.20;0.50;;;6.00;99.90;;;;;;5035848;28;20043;-74
2023/10/15 02:47:19;;;;;;;4.75;0.75;;;6.00;99.90;;;;;;5035240;28;20044;-74
2023/10/15 02:49:59;;;;;;;3.67;0.82;;;6.10;99.90;;;;;;5038662;28;20049;-74
2023/10/15 02:52:26;;;;;;;4.00;0.50;;;6.10;99.90;;;;;;5037025;28;20064;-75
2023/10/15 02:54:51;;;;;;;1.23;0.50;;;6.20;99.90;;;;;;5046224;28;20032;-76
2023/10/15 02:57:17;;;;;;;2.58;1.35;;;6.20;99.90;;;;;;5051718;28;20047;-75
2023/10/15 02:59:53;;;;;;;3.35;0.63;;;6.30;99.90;;;;;;5039888;28;20044;-75
2023/10/15 03:02:20;;;;;;;5.35;0.57;;;6.20;99.90;;;;;;5049459;28;20045;-75
2023/10/15 03:04:55;;;;;;;2.90;0.52;;;6.20;99.90;;;;;;5033758;28;20087;-75
2023/10/15 03:07:30;;;;;;;2.88;0.40;;;6.20;99.90;;;;;;5024709;28;20124;-75
2023/10/15 03:09:56;;;;;;;3.22;0.90;;;6.10;99.90;;;;;;5034088;28;20029;-74
2023/10/15 03:12:23;;;;;;;1.88;0.32;;;6.00;99.90;;;;;;5033062;28;20037;-75
2023/10/15 03:14:49;;;;;;;2.85;0.50;;;5.90;99.90;;;;;;5034768;28;20044;-74
2023/10/15 03:17:24;;;;;;;5.00;0.50;;;5.80;99.90;;;;;;5050149;28;20040;-74
2023/10/15 03:19:56;;;;;;;1.40;0.45;;;5.70;99.90;;;;;;5032658;28;20171;-74
2023/10/15 03:22:24;;;;;;;1.33;0.40;;;5.60;99.90;;;;;;5015234;28;20075;-74
2023/10/15 03:24:56;;;;;;;2.05;1.05;;;5.50;99.90;;;;;;5046896;28;20499;-74
2023/10/15 03:27:26;;;;;;;6.25;0.70;;;5.40;99.90;;;;;;5031061;28;20052;-74
2023/10/15 03:29:56;;;;;;;5.32;1.17;;;5.40;99.90;;;;;;5028736;28;20124;-74
2023/10/15 03:32:27;;;;;;;1.27;0.50;;;5.30;99.90;;;;;;5019402;28;20053;-74
2023/10/15 03:35:04;;;;;;;2.25;0.52;;;5.20;99.90;;;;;;5040849;28;20037;-74
2023/10/15 03:37:30;;;;;;;4.90;0.70;;;5.20;99.90;;;;;;5025896;28;20044;-74
2023/10/15 03:39:56;;;;;;;2.60;0.60;;;5.30;99.90;;;;;;5030876;28;20045;-74
2023/10/15 03:42:28;;;;;;;2.95;0.65;;;5.30;99.90;;;;;;5026596;28;20168;-74
2023/10/15 03:44:59;;;;;;;2.83;0.45;;;5.40;99.90;;;;;;5023677;28;20053;-74
2023/10/15 03:47:26;;;;;;;2.67;0.75;;;5.50;99.90;;;;;;5020366;28;20033;-74
2023/10/15 03:49:52;;;;;;;4.70;1.00;;;5.50;99.90;;;;;;5047039;28;20048;-75
2023/10/15 03:52:21;;;;;;;1.77;0.45;;;5.50;99.90;;;;;;5044481;28;20053;-74
2023/10/15 03:54:50;;;;;;;4.72;0.70;;;5.60;99.90;;;;;;5045059;28;20134;-74
2023/10/15 03:57:17;;;;;;;3.92;0.40;;;5.50;99.90;;;;;;5044023;28;20048;-74
2023/10/15 03:59:45;;;;;;;2.95;0.60;;;5.60;99.90;;;;;;5045423;28;20044;-74
2023/10/15 04:02:13;;;;;;;2.70;0.60;;;5.50;99.90;;;;;;5032840;28;20053;-74
2023/10/15 04:04:39;;;;;;;2.22;0.50;;;5.50;99.90;;;;;;5057042;28;20048;-74
2023/10/15 04:07:19;;;;;;;3.50;0.60;;;5.50;99.90;;;;;;5028740;28;20029;-76
2023/10/15 04:09:45;;;;;;;3.90;0.70;;;5.60;99.90;;;;;;5034475;28;20048;-74
2023/10/15 04:12:11;;;;;;;4.53;0.90;;;5.70;99.90;;;;;;5040131;28;20040;-74
2023/10/15 04:14:37;;;;;;;3.40;0.80;;;5.70;99.90;;;;;;5019606;28;20037;-74
2023/10/15 04:17:06;;;;;;;5.80;1.30;;;5.80;99.90;;;;;;5027583;28;20072;-74
2023/10/15 04:19:31;;;;;;;6.43;0.82;;;5.90;99.90;;;;;;5030847;28;20426;-74
2023/10/15 04:22:00;;;;;;;2.10;0.40;;;5.90;99.90;;;;;;5030015;28;20049;-74
2023/10/15 04:24:46;;;;;;;2.42;0.80;;;5.90;99.90;;;;;;5019277;28;20052;-74
2023/10/15 04:27:17;;;;;;;1.27;0.40;;;5.80;99.90;;;;;;5036940;28;20073;-73
2023/10/15 04:29:55;;;;;;;1.80;0.50;;;5.80;99.90;;;;;;5026253;28;20045;-74
2023/10/15 04:33:07;;;;;;;4.65;0.50;;;5.80;99.90;;;;;;5042656;28;20048;-74
2023/10/15 04:35:11;;;;;;;3.05;0.40;;;5.70;99.90;;;;;;5036705;28;20056;-74
2023/10/15 04:37:37;;;;;;;1.50;0.52;;;5.60;99.90;;;;;;5026249;28;20133;-74
2023/10/15 04:40:05;;;;;;;2.88;0.40;;;5.60;99.90;;;;;;5045359;28;20045;-75
2023/10/15 04:42:37;;;;;;;3.60;0.55;;;5.50;99.90;;;;;;5028374;28;20049;-74
2023/10/15 04:45:20;;;;;;;2.40;0.40;;;5.50;99.90;;;;;;5046658;28;20125;-74
2023/10/15 04:47:51;;;;;;;2.70;0.70;;;5.30;99.90;;;;;;5025081;28;20048;-75
2023/10/15 04:50:17;;;;;;;7.40;0.70;;;5.20;99.90;;;;;;5032799;28;20697;-74
2023/10/15 04:52:43;;;;;;;8.50;1.25;;;5.10;99.90;;;;;;5028423;28;20080;-74
2023/10/15 04:55:11;;;;;;;3.08;0.30;;;5.20;99.90;;;;;;5022540;28;20033;-75
2023/10/15 04:57:39;;;;;;;4.70;0.40;;;5.30;99.90;;;;;;5026842;28;20049;-75
2023/10/15 05:00:06;;;;;;;1.55;0.70;;;5.40;99.90;;;;;;5038833;28;20037;-75
2023/10/15 05:02:33;;;;;;;2.55;0.40;;;5.50;99.90;;;;;;5029497;28;20661;-74
2023/10/15 05:05:00;;;;;;;2.88;1.20;;;5.60;99.90;;;;;;5028576;28;20041;-75
2023/10/15 05:07:27;;;;;;;4.10;0.80;;;5.70;99.90;;;;;;5028000;28;20120;-75
2023/10/15 05:09:54;;;;;;;1.58;0.50;;;5.70;99.90;;;;;;5042155;28;20045;-74
2023/10/15 05:12:20;;;;;;;3.30;0.60;;;5.70;99.90;;;;;;5041968;28;20034;-74
2023/10/15 05:14:49;;;;;;;1.20;0.40;;;5.70;99.90;;;;;;5041335;28;20043;-74
2023/10/15 05:17:20;;;;;;;1.85;0.82;;;5.80;99.90;;;;;;5029234;28;20392;-75
2023/10/15 05:19:52;;;;;;;1.80;0.20;;;5.60;99.90;;;;;;5041052;28;20040;-74
2023/10/15 05:22:19;;;;;;;3.22;0.60;;;5.70;99.90;;;;;;5055964;28;20052;-74
2023/10/15 05:24:44;;;;;;;1.63;0.60;;;5.70;99.90;;;;;;5046017;28;20106;-74
2023/10/15 05:27:12;;;;;;;2.75;0.40;;;5.70;99.90;;;;;;5025716;28;20519;-74
2023/10/15 05:29:39;;;;;;;3.38;0.47;;;5.70;99.90;;;;;;5040270;28;20517;-74
2023/10/15 05:32:06;;;;;;;3.90;0.50;;;5.70;99.90;;;;;;5020452;28;20466;-74
2023/10/15 05:34:32;;;;;;;6.30;0.50;;;5.70;99.90;;;;;;5027634;28;20500;-74
2023/10/15 05:36:57;;;;;;;2.67;0.40;;;5.80;99.90;;;;;;5043015;28;20037;-74
2023/10/15 05:39:24;;;;;;;2.17;0.30;;;5.80;99.90;;;;;;5026870;28;20116;-77
2023/10/15 05:41:50;;;;;;;3.67;0.47;;;5.80;99.90;;;;;;5026661;28;20051;-74
2023/10/15 05:44:18;;;;;;;2.78;0.95;;;5.70;99.90;;;;;;5029382;28;20059;-74
2023/10/15 05:46:46;;;;;;;4.03;0.40;;;5.70;99.90;;;;;;5016885;28;20041;-74
2023/10/15 05:49:12;;;;;;;5.68;0.40;;;5.70;99.90;;;;;;5034262;28;20053;-74
2023/10/15 05:51:37;;;;;;;4.57;0.50;;;5.70;99.90;;;;;;5025777;28;20147;-73
2023/10/15 05:54:04;;;;;;;4.13;0.47;;;5.60;99.90;;;;;;5057722;28;20041;-76
2023/10/15 05:56:30;;;;;;;2.50;0.60;;;5.60;99.90;;;;;;5058568;28;20518;-75
2023/10/15 05:58:57;;;;;;;3.58;0.90;;;5.60;99.90;;;;;;5028686;28;20051;-74
2023/10/15 06:01:23;;;;;;;5.80;0.50;;;5.60;99.90;;;;;;5024721;28;20130;-74
2023/10/15 06:03:48;;;;;;;1.25;0.30;;;5.60;99.90;;;;;;5027884;28;20048;-74
2023/10/15 06:06:15;;;;;;;3.40;0.77;;;5.60;99.90;;;;;;5034680;28;20045;-74
2023/10/15 06:08:41;;;;;;;3.40;0.40;;;5.60;99.90;;;;;;5022690;28;20063;-74
2023/10/15 06:11:06;;;;;;;4.43;0.77;;;5.70;99.90;;;;;;5026972;28;20044;-74
2023/10/15 06:13:32;;;;;;;3.33;0.55;;;5.70;99.90;;;;;;5024034;28;20098;-74
2023/10/15 06:16:00;;;;;;;1.75;0.40;;;5.70;99.90;;;;;;5027069;28;20045;-74
2023/10/15 06:18:26;;;;;;;3.53;0.50;;;5.80;99.90;;;;;;5043375;28;20076;-74
2023/10/15 06:20:51;;;;;;;3.42;0.47;;;5.80;99.90;;;;;;5043087;28;20068;-74
2023/10/15 06:23:18;;;;;;;1.90;0.40;;;5.90;99.90;;;;;;5021918;28;20033;-74
2023/10/15 06:25:43;;;;;;;2.70;0.85;;;5.90;99.90;;;;;;5023533;28;20096;-74
2023/10/15 06:28:13;;;;;;;2.97;0.50;;;5.90;99.90;;;;;;5042008;28;20064;-74
2023/10/15 06:30:43;;;;;;;2.25;1.00;;;5.80;99.90;;;;;;5036678;28;20106;-74
2023/10/15 06:33:09;;;;;;;0.93;0.32;;;5.90;99.90;;;;;;5040443;28;20033;-73
2023/10/15 06:35:35;;;;;;;4.55;0.60;;;5.90;99.90;;;;;;5024520;28;20037;-72
2023/10/15 06:38:01;;;;;;;2.13;0.40;;;5.90;99.90;;;;;;5023973;28;20037;-73
2023/10/15 06:40:28;;;;;;;2.33;0.25;;;5.90;99.90;;;;;;5035356;28;20048;-74
2023/10/15 06:43:00;;;;;;;1.35;0.63;;;5.90;99.90;;;;;;5038416;28;20063;-73
2023/10/15 06:45:29;;;;;;;2.72;0.43;;;5.90;99.90;;;;;;5038703;28;20071;-73
2023/10/15 06:47:55;;;;;;;2.35;0.43;;;5.90;99.90;;;;;;5023291;28;20396;-73
2023/10/15 06:50:21;;;;;;;1.92;0.40;;;5.90;99.90;;;;;;5034476;28;20098;-73
2023/10/15 06:52:47;;;;;;;5.60;0.55;;;5.90;99.90;;;;;;5028847;28;20045;-74
2023/10/15 06:55:14;;;;;;;3.05;0.60;;;6.00;99.90;;;;;;5044163;28;20162;-74
2023/10/15 06:57:41;;;;;;;2.80;0.40;;;6.00;99.90;;;;;;5028090;28;20037;-73
2023/10/15 07:00:12;;;;;;;3.22;0.40;;;6.10;99.90;;;;;;5034390;28;20041;-74
2023/10/15 07:02:38;;;;;;;1.75;0.40;;;6.10;99.90;;;;;;5022943;28;20036;-74
2023/10/15 07:05:04;;;;;;;4.90;1.92;;;6.10;99.90;;;;;;5026100;28;20501;-74
2023/10/15 07:07:32;;;;;;;9.25;5.10;;;6.10;99.90;;;;;;5029007;28;20037;-74
2023/10/15 07:10:01;;;;;;;5.55;1.70;;;6.20;99.90;;;;;;5056528;28;20403;-74
2023/10/15 07:12:26;;;;;;;3.03;0.70;;;6.20;99.90;;;;;;5051179;28;20045;-74
2023/10/15 07:14:52;;;;;;;5.28;2.00;;;6.30;99.90;;;;;;5043243;28;20120;-71
2023/10/15 07:17:18;;;;;;;2.58;1.02;;;6.30;99.90;;;;;;5024697;28;20037;-71
2023/10/15 07:19:43;;;;;;;2.58;1.50;;;6.20;99.90;;;;;;5034535;28;20056;-71
2023/10/15 07:22:09;;;;;;;3.80;1.38;;;6.10;99.90;;;;;;5035597;28;20116;-72
2023/10/15 07:24:35;;;;;;;3.50;1.40;;;6.20;99.90;;;;;;5033762;28;20500;-71
2023/10/15 07:27:04;;;;;;;1.75;1.00;;;6.30;99.90;;;;;;5026618;28;20470;-72
2023/10/15 07:29:30;;;;;;;2.17;0.85;;;6.40;99.90;;;;;;5039229;28;20056;-72
2023/10/15 07:31:56;;;;;;;2.60;0.57;;;6.50;99.90;;;;;;5033014;28;20202;-73
2023/10/15 07:34:26;;;;;;;5.25;0.50;;;6.50;99.90;;;;;;5029192;28;20491;-72
2023/10/15 07:36:55;;;;;;;1.35;0.80;;;6.40;99.90;;;;;;5030596;28;20098;-72
2023/10/15 07:39:25;;;;;;;1.02;0.52;;;6.40;99.90;;;;;;5047821;28;20143;-72
2023/10/15 07:41:51;;;;;;;3.15;0.73;;;6.30;99.90;;;;;;5026670;28;20071;-72
2023/10/15 07:44:18;;;;;;;3.92;2.83;;;6.10;99.90;;;;;;5054700;28;20070;-72
2023/10/15 07:46:43;;;;;;;10.63;7.15;;;6.00;99.90;;;;;;5053326;28;20036;-71
2023/10/15 07:49:12;;;;;;;6.90;4.18;;;5.90;99.90;;;;;;5047095;28;20033;-72
2023/10/15 07:51:38;;;;;;;3.40;1.20;;;6.00;99.90;;;;;;5045548;28;20107;-72
2023/10/15 07:54:04;;;;;;;5.10;0.65;;;6.00;99.90;;;;;;5045948;28;20033;-72
2023/10/15 07:56:31;;;;;;;3.90;0.77;;;5.90;99.90;;;;;;5054067;28;20035;-72
2023/10/15 07:58:57;;;;;;;3.47;0.70;;;6.00;99.90;;;;;;5012778;28;20041;-72
2023/10/15 08:01:25;;;;;;;4.22;0.50;;;6.20;99.90;;;;;;5039712;28;20041;-72
2023/10/15 08:03:51;;;;;;;2.88;0.50;;;6.10;99.90;;;;;;5044628;28;20123;-72
2023/10/15 08:06:16;;;;;;;3.15;0.40;;;6.10;99.90;;;;;;5034222;28;20040;-71
2023/10/15 08:08:45;;;;;;;5.60;0.55;;;6.10;99.90;;;;;;5042771;28;20089;-71
2023/10/15 08:11:11;;;;;;;1.02;0.30;;;6.00;99.90;;;;;;5050295;28;20045;-71
2023/10/15 08:13:37;;;;;;;4.55;0.40;;;6.10;99.90;;;;;;5036724;28;20063;-72
2023/10/15 08:16:02;;;;;;;3.50;0.50;;;6.10;99.90;;;;;;5047225;28;20037;-72
2023/10/15 08:18:28;;;;;;;4.32;0.50;;;6.00;99.90;;;;;;5029068;28;20041;-72
2023/10/15 08:20:54;;;;;;;6.63;0.80;;;6.10;99.90;;;;;;5043239;28;20055;-72
2023/10/15 08:23:20;;;;;;;1.90;0.50;;;6.10;99.90;;;;;;5027945;28;20115;-72
2023/10/15 08:25:48;;;;;;;2.70;0.70;;;6.20;99.90;;;;;;5024340;28;20556;-72
2023/10/15 08:28:14;;;;;;;1.83;0.70;;;6.40;99.90;;;;;;5042234;28;20044;-72
2023/10/15 08:30:41;;;;;;;2.47;0.40;;;6.60;99.90;;;;;;5014420;28;20096;-72
2023/10/15 08:33:11;;;;;;;3.30;0.40;;;6.90;99.90;;;;;;5016039;28;20037;-72
2023/10/15 08:35:37;;;;;;;4.60;0.52;;;7.00;99.90;;;;;;5039266;28;20126;-72
2023/10/15 08:38:07;;;;;;;2.50;0.82;;;7.20;99.90;;;;;;5055775;28;20037;-72
2023/10/15 08:40:39;;;;;;;3.92;0.30;;;7.50;99.90;;;;;;5038417;28;20087;-72
2023/10/15 08:43:26;;;;;;;3.17;0.50;;;7.80;99.90;;;;;;5035064;28;20861;-72
2023/10/15 08:45:53;;;;;;;5.28;0.40;;;7.90;99.90;;;;;;5029627;28;20052;-71
2023/10/15 08:48:19;;;;;;;5.03;0.90;;;7.80;99.90;;;;;;5046418;28;20067;-72
2023/10/15 08:50:46;;;;;;;3.15;0.70;;;7.60;99.90;;;;;;5049847;28;20036;-72
2023/10/15 08:53:13;;;;;;;3.95;0.80;;;7.40;99.90;;;;;;5037624;28;20057;-73
2023/10/15 08:55:41;;;;;;;2.45;0.98;;;7.50;99.90;;;;;;5025716;28;20044;-73
2023/10/15 08:58:09;;;;;;;1.92;0.50;;;7.80;99.90;;;;;;5037028;28;20068;-73
2023/10/15 09:00:39;;;;;;;4.47;1.30;;;7.90;99.90;;;;;;5033429;28;20045;-73
2023/10/15 09:03:05;;;;;;;1.92;0.70;;;7.80;99.90;;;;;;5028950;28;20116;-73
2023/10/15 09:05:37;;;;;;;4.50;1.20;;;7.80;99.90;;;;;;5050952;28;20085;-73
2023/10/15 09:08:07;;;;;;;4.75;0.93;;;7.60;99.90;;;;;;5040895;28;20052;-73
2023/10/15 09:10:40;;;;;;;3.90;1.05;;;7.40;99.90;;;;;;5041255;28;20056;-73
2023/10/15 09:13:14;;;;;;;3.45;0.73;;;7.30;99.90;;;;;;5035165;28;20105;-73
2023/10/15 09:15:43;;;;;;;3.90;0.40;;;7.30;99.90;;;;;;5031979;28;20046;-73
2023/10/15 09:18:11;;;;;;;6.47;0.95;;;7.40;99.90;;;;;;5042634;28;20032;-73
2023/10/15 09:20:42;;;;;;;3.40;1.27;;;7.40;99.90;;;;;;5042718;28;20436;-73
2023/10/15 09:23:09;;;;;;;3.30;0.68;;;7.60;99.90;;;;;;5027108;28;20036;-73
2023/10/15 09:25:35;;;;;;;4.32;0.85;;;7.90;99.90;;;;;;5057131;28;20048;-73
2023/10/15 09:28:02;;;;;;;2.28;0.82;;;7.90;99.90;;;;;;5036778;28;20041;-73
2023/10/15 09:30:30;;;;;;;3.70;0.70;;;8.00;99.90;;;;;;5030217;28;20115;-73
2023/10/15 09:32:57;;;;;;;1.85;0.63;;;8.00;99.90;;;;;;5039979;28;20099;-73
2023/10/15 09:35:23;;;;;;;2.80;1.40;;;8.30;99.90;;;;;;5029237;28;20393;-73
2023/10/15 09:37:49;;;;;;;3.05;1.00;;;8.60;99.90;;;;;;5044284;28;20124;-73
2023/10/15 09:40:24;;;;;;;1.48;0.50;;;8.70;99.90;;;;;;5020272;28;20226;-73
2023/10/15 09:42:53;;;;;;;3.58;2.00;;;8.70;99.90;;;;;;5029224;28;20660;-74
2023/10/15 09:45:23;;;;;;;7.15;1.13;;;8.80;99.90;;;;;;5041697;28;20033;-73
2023/10/15 09:47:57;;;;;;;7.78;1.10;;;9.10;99.90;;;;;;5043700;28;20411;-74
2023/10/15 09:50:25;;;;;;;12.68;4.97;;;9.30;99.90;;;;;;5040345;28;20049;-74
2023/10/15 09:53:01;;;;;;;8.00;2.60;;;9.20;99.90;;;;;;5043873;28;20114;-73
2023/10/15 09:55:31;;;;;;;10.73;1.20;;;9.20;99.90;;;;;;5051969;28;20217;-73
2023/10/15 09:58:01;;;;;;;4.68;0.90;;;9.30;99.90;;;;;;5018405;28;20045;-74
2023/10/15 10:00:46;;;;;;;4.70;2.33;;;8.90;99.90;;;;;;5019759;28;20041;-74
2023/10/15 10:03:59;;;;;;;9.15;4.95;;;8.70;99.90;;;;;;5028282;28;20036;-74
2023/10/15 10:06:56;;;;;;;10.15;4.53;;;8.70;99.90;;;;;;5022227;28;20040;-74
2023/10/15 10:09:47;;;;;;;15.85;1.88;;;8.70;99.90;;;;;;5036366;28;20049;-74
2023/10/15 10:12:32;;;;;;;7.72;2.30;;;8.90;99.90;;;;;;5033032;28;20119;-73
2023/10/15 10:15:25;;;;;;;5.50;0.82;;;8.90;99.90;;;;;;5040074;28;20049;-73
2023/10/15 10:17:53;;;;;;;4.03;0.90;;;8.70;99.90;;;;;;5029006;28;20037;-73
2023/10/15 10:20:19;;;;;;;7.80;2.28;;;8.60;99.90;;;;;;5041743;28;20119;-73
2023/10/15 10:22:57;;;;;;;5.93;1.05;;;8.60;99.90;;;;;;5044039;28;20045;-73
2023/10/15 10:25:39;;;;;;;4.55;1.25;;;8.90;99.90;;;;;;5033663;28;20049;-74
2023/10/15 10:28:19;;;;;;;3.38;1.20;;;9.20;99.90;;;;;;5041932;28;20041;-74
2023/10/15 10:30:54;;;;;;;2.65;1.60;;;9.30;99.90;;;;;;5043570;28;20041;-74
2023/10/15 10:33:40;;;;;;;7.88;2.40;;;9.20;99.90;;;;;;5028102;28;20087;-74
2023/10/15 10:36:29;;;;;;;3.20;1.33;;;8.90;99.90;;;;;;5035656;28;20036;-74
2023/10/15 10:39:07;;;;;;;3.83;0.82;;;8.80;99.90;;;;;;5038568;28;20045;-73
2023/10/15 10:41:40;;;;;;;7.00;1.67;;;8.50;99.90;;;;;;5026835;28;20090;-74
2023/10/15 10:44:29;;;;;;;4.32;2.03;;;8.20;99.90;;;;;;5017530;28;20404;-74
2023/10/15 10:46:58;;;;;;;4.95;1.23;;;8.00;99.90;;;;;;5043392;28;20122;-73
2023/10/15 10:49:34;;;;;;;2.95;0.90;;;8.10;99.90;;;;;;5024239;28;20056;-74
2023/10/15 10:52:15;;;;;;;7.35;1.65;;;8.20;99.90;;;;;;5042480;28;20119;-73
2023/10/15 10:54:42;;;;;;;5.97;0.65;;;8.40;99.90;;;;;;5030794;28;20111;-73
2023/10/15 10:57:08;;;;;;;3.53;0.70;;;8.50;99.90;;;;;;5014449;28;20042;-73
2023/10/15 10:59:39;;;;;;;2.83;1.33;;;8.60;99.90;;;;;;5042393;28;20718;-73
2023/10/15 11:02:06;;;;;;;4.40;0.95;;;8.70;99.90;;;;;;5051522;28;20836;-74
2023/10/15 11:04:33;;;;;;;3.05;0.50;;;8.70;99.90;;;;;;5035492;28;20048;-74
2023/10/15 11:06:58;;;;;;;3.00;0.70;;;8.60;99.90;;;;;;5036798;28;20048;-74
2023/10/15 11:09:25;;;;;;;3.60;0.60;;;8.70;99.90;;;;;;5031324;28;20435;-74
2023/10/15 11:11:57;;;;;;;2.83;0.47;;;8.70;99.90;;;;;;5047891;28;20124;-74
2023/10/15 11:14:25;;;;;;;3.05;0.70;;;8.70;99.90;;;;;;5034551;28;20041;-74
2023/10/15 11:16:55;;;;;;;2.72;0.60;;;8.90;99.90;;;;;;5029412;28;20060;-74
2023/10/15 11:19:23;;;;;;;2.83;0.50;;;9.40;99.90;;;;;;5025723;28;20420;-74
2023/10/15 11:21:51;;;;;;;2.10;0.65;;;10.00;99.90;;;;;;5021641;28;20043;-74
2023/10/15 11:24:18;;;;;;;1.20;0.38;;;10.00;99.90;;;;;;5028289;28;20303;-74
2023/10/15 11:26:45;;;;;;;2.20;0.60;;;9.80;99.90;;;;;;5022862;28;20526;-73
2023/10/15 11:29:18;;;;;;;4.95;0.80;;;9.80;99.90;;;;;;5030034;28;20167;-74
2023/10/15 11:31:46;;;;;;;2.88;0.80;;;9.70;99.90;;;;;;5032175;28;20037;-74
2023/10/15 11:34:14;;;;;;;3.08;0.65;;;9.80;99.90;;;;;;5020663;28;20041;-74
2023/10/15 11:36:43;;;;;;;2.55;0.40;;;9.80;99.90;;;;;;5055688;28;20452;-74
2023/10/15 11:39:18;;;;;;;2.40;0.45;;;9.50;99.90;;;;;;5049990;28;20037;-74
2023/10/15 11:41:57;;;;;;;5.75;0.57;;;9.50;99.90;;;;;;5030916;28;20411;-74
2023/10/15 11:44:26;;;;;;;1.60;0.50;;;9.50;99.90;;;;;;5023920;28;20155;-72
2023/10/15 11:46:55;;;;;;;4.85;0.50;;;9.40;99.90;;;;;;5035149;28;20495;-72
2023/10/15 11:49:22;;;;;;;2.22;0.57;;;9.50;99.90;;;;;;5043767;28;20036;-72
2023/10/15 11:51:49;;;;;;;3.83;1.17;;;9.50;99.90;;;;;;5041598;28;20048;-72
2023/10/15 11:54:16;;;;;;;1.35;0.60;;;9.50;99.90;;;;;;5025967;28;20098;-72
2023/10/15 11:56:50;;;;;;;1.52;0.45;;;9.60;99.90;;;;;;5039929;28;20080;-72
2023/10/15 11:59:16;;;;;;;2.83;0.60;;;9.70;99.90;;;;;;5029627;28;20053;-72
2023/10/15 12:01:44;;;;;;;3.42;0.43;;;9.80;99.90;;;;;;5028065;28;20041;-72
2023/10/15 12:04:11;;;;;;;2.53;0.82;;;10.00;99.90;;;;;;5047137;28;20045;-72
2023/10/15 12:06:38;;;;;;;3.72;0.82;;;10.30;99.90;;;;;;5036538;28;20861;-72
2023/10/15 12:09:12;;;;;;;1.48;0.75;;;10.70;99.90;;;;;;5023602;28;20040;-72
2023/10/15 12:11:41;;;;;;;2.67;1.02;;;10.80;99.90;;;;;;5039759;28;20435;-72
2023/10/15 12:14:07;;;;;;;8.52;0.80;;;10.70;99.90;;;;;;5042857;28;20561;-72
2023/10/15 12:16:34;;;;;;;3.20;0.80;;;10.30;99.90;;;;;;5019671;28;20045;-72
2023/10/15 12:18:59;;;;;;;4.78;1.27;;;9.90;99.90;;;;;;5037053;28;20063;-72
2023/10/15 12:21:25;;;;;;;3.95;1.30;;;9.60;99.90;;;;;;5028347;28;20491;-72
2023/10/15 12:23:51;;;;;;;7.97;3.85;;;9.40;99.90;;;;;;5046107;28;20040;-72
2023/10/15 12:26:16;;;;;;;6.30;0.65;;;9.30;99.90;;;;;;5046558;28;20063;-72
2023/10/15 12:28:46;;;;;;;6.63;1.20;;;9.40;99.90;;;;;;5045425;28;20049;-72
2023/10/15 12:31:13;;;;;;;4.05;0.80;;;9.40;99.90;;;;;;5057036;28;20053;-72
2023/10/15 12:33:39;;;;;;;6.22;0.90;;;9.40;99.90;;;;;;5037710;28;20042;-72
2023/10/15 12:36:09;;;;;;;3.90;0.70;;;9.40;99.90;;;;;;5048492;28;20526;-72
2023/10/15 12:38:35;;;;;;;2.70;0.63;;;9.40;99.90;;;;;;5038707;28;20048;-72
2023/10/15 12:41:03;;;;;;;4.75;0.50;;;9.40;99.90;;;;;;5043031;28;20037;-72
2023/10/15 12:43:28;;;;;;;5.22;0.95;;;9.60;99.90;;;;;;5042154;28;20060;-72
2023/10/15 12:45:54;;;;;;;6.95;0.90;;;10.00;99.90;;;;;;5029443;28;20119;-72
2023/10/15 12:48:20;;;;;;;2.42;0.90;;;10.10;99.90;;;;;;5057786;28;20064;-72
2023/10/15 12:50:47;;;;;;;4.32;0.77;;;10.10;99.90;;;;;;5039611;28;20469;-72
2023/10/15 12:53:13;;;;;;;5.95;1.85;;;10.20;99.90;;;;;;5025777;28;20080;-73
2023/10/15 12:55:39;;;;;;;6.35;0.70;;;10.30;99.90;;;;;;5044393;28;20044;-73
2023/10/15 12:58:05;;;;;;;7.65;1.40;;;10.20;99.90;;;;;;5034912;28;20131;-73
2023/10/15 13:00:32;;;;;;;3.97;0.90;;;10.20;99.90;;;;;;5046359;28;20384;-73
2023/10/15 13:02:58;;;;;;;2.05;0.52;;;9.90;99.90;;;;;;5041255;28;20793;-72
2023/10/15 13:05:25;;;;;;;3.13;0.60;;;9.60;99.90;;;;;;5026192;28;20114;-73
2023/10/15 13:07:53;;;;;;;3.17;0.50;;;9.50;99.90;;;;;;5049983;28;20043;-72
2023/10/15 13:10:20;;;;;;;3.63;0.60;;;9.60;99.90;;;;;;5032973;28;20119;-72